sensor_id;sensor_type;location;lat;lon;timestamp;pressure;altitude;pressure_sealevel;temperature;humidity
50310;BME280;36207;51.850;21.698;2022-07-10T00:00:06;99791.98;;;15.89;66.97
50310;BME280;36207;51.850;21.698;2022-07-10T00:02:53;99788.98;;;15.84;66.91
50310;BME280;36207;51.850;21.698;2022-07-10T00:05:19;99792.98;;;15.76;66.92
50310;BME280;36207;51.850;21.698;2022-07-10T00:07:45;99793.14;;;15.70;66.95
50310;BME280;36207;51.850;21.698;2022-07-10T00:10:11;99783.45;;;15.67;66.84
50310;BME280;36207;51.850;21.698;2022-07-10T00:12:37;99777.66;;;15.64;67.07
50310;BME280;36207;51.850;21.698;2022-07-10T00:15:05;99777.52;;;15.62;66.88
50310;BME280;36207;51.850;21.698;2022-07-10T00:17:32;99778.91;;;15.57;66.80
50310;BME280;36207;51.850;21.698;2022-07-10T00:19:58;99775.39;;;15.46;66.75
50310;BME280;36207;51.850;21.698;2022-07-10T00:22:25;99775.80;;;15.38;66.67
50310;BME280;36207;51.850;21.698;2022-07-10T00:24:51;99776.35;;;15.31;66.91
50310;BME280;36207;51.850;21.698;2022-07-10T00:27:17;99776.63;;;15.26;66.93
50310;BME280;36207;51.850;21.698;2022-07-10T00:29:43;99775.23;;;15.24;67.00
50310;BME280;36207;51.850;21.698;2022-07-10T00:32:09;99770.27;;;15.18;66.88
50310;BME280;36207;51.850;21.698;2022-07-10T00:34:35;99767.52;;;15.15;67.13
50310;BME280;36207;51.850;21.698;2022-07-10T00:37:02;99764.42;;;15.16;67.13
50310;BME280;36207;51.850;21.698;2022-07-10T00:39:28;99761.99;;;15.15;67.17
50310;BME280;36207;51.850;21.698;2022-07-10T00:41:55;99762.42;;;15.13;67.18
50310;BME280;36207;51.850;21.698;2022-07-10T00:44:21;99761.27;;;15.09;67.24
50310;BME280;36207;51.850;21.698;2022-07-10T00:46:47;99752.72;;;15.01;67.33
50310;BME280;36207;51.850;21.698;2022-07-10T00:49:13;99745.75;;;14.94;67.28
50310;BME280;36207;51.850;21.698;2022-07-10T00:51:39;99744.33;;;14.91;67.29
50310;BME280;36207;51.850;21.698;2022-07-10T00:54:05;99740.64;;;14.91;67.36
50310;BME280;36207;51.850;21.698;2022-07-10T00:56:31;99737.08;;;14.92;67.36
50310;BME280;36207;51.850;21.698;2022-07-10T00:58:58;99738.64;;;14.94;67.49
50310;BME280;36207;51.850;21.698;2022-07-10T01:01:24;99736.90;;;14.89;67.54
50310;BME280;36207;51.850;21.698;2022-07-10T01:03:50;99736.26;;;14.84;67.53
50310;BME280;36207;51.850;21.698;2022-07-10T01:06:17;99732.13;;;14.83;67.65
50310;BME280;36207;51.850;21.698;2022-07-10T01:08:43;99731.14;;;14.81;67.65
50310;BME280;36207;51.850;21.698;2022-07-10T01:11:09;99731.44;;;14.79;67.61
50310;BME280;36207;51.850;21.698;2022-07-10T01:13:36;99740.14;;;14.75;67.69
50310;BME280;36207;51.850;21.698;2022-07-10T01:16:02;99740.57;;;14.71;67.83
50310;BME280;36207;51.850;21.698;2022-07-10T01:18:28;99737.06;;;14.65;67.58
50310;BME280;36207;51.850;21.698;2022-07-10T01:20:55;99732.86;;;14.62;67.69
50310;BME280;36207;51.850;21.698;2022-07-10T01:23:21;99732.05;;;14.58;67.49
50310;BME280;36207;51.850;21.698;2022-07-10T01:25:48;99730.23;;;14.51;67.57
50310;BME280;36207;51.850;21.698;2022-07-10T01:28:15;99728.30;;;14.43;67.76
50310;BME280;36207;51.850;21.698;2022-07-10T01:30:41;99726.71;;;14.36;67.88
50310;BME280;36207;51.850;21.698;2022-07-10T01:33:07;99721.02;;;14.32;67.76
50310;BME280;36207;51.850;21.698;2022-07-10T01:35:33;99723.59;;;14.29;68.00
50310;BME280;36207;51.850;21.698;2022-07-10T01:37:59;99722.66;;;14.25;68.01
50310;BME280;36207;51.850;21.698;2022-07-10T01:40:25;99724.60;;;14.19;68.05
50310;BME280;36207;51.850;21.698;2022-07-10T01:42:51;99720.73;;;14.15;67.52
50310;BME280;36207;51.850;21.698;2022-07-10T01:45:17;99722.39;;;14.14;67.79
50310;BME280;36207;51.850;21.698;2022-07-10T01:47:46;99722.16;;;14.08;67.93
50310;BME280;36207;51.850;21.698;2022-07-10T01:50:12;99724.44;;;14.00;68.15
50310;BME280;36207;51.850;21.698;2022-07-10T01:52:38;99724.94;;;13.94;68.18
50310;BME280;36207;51.850;21.698;2022-07-10T01:55:06;99727.78;;;13.92;68.22
50310;BME280;36207;51.850;21.698;2022-07-10T01:57:32;99729.36;;;13.91;68.18
50310;BME280;36207;51.850;21.698;2022-07-10T01:59:58;99726.23;;;13.87;68.47
50310;BME280;36207;51.850;21.698;2022-07-10T02:02:24;99726.30;;;13.85;68.28
50310;BME280;36207;51.850;21.698;2022-07-10T02:04:50;99725.71;;;13.84;68.38
50310;BME280;36207;51.850;21.698;2022-07-10T02:07:17;99726.23;;;13.82;68.26
50310;BME280;36207;51.850;21.698;2022-07-10T02:09:44;99728.92;;;13.81;68.46
50310;BME280;36207;51.850;21.698;2022-07-10T02:12:11;99726.10;;;13.79;68.50
50310;BME280;36207;51.850;21.698;2022-07-10T02:14:38;99724.33;;;13.76;68.55
50310;BME280;36207;51.850;21.698;2022-07-10T02:17:05;99720.16;;;13.77;68.64
50310;BME280;36207;51.850;21.698;2022-07-10T02:19:31;99720.77;;;13.76;68.75
50310;BME280;36207;51.850;21.698;2022-07-10T02:21:58;99719.45;;;13.74;68.62
50310;BME280;36207;51.850;21.698;2022-07-10T02:24:24;99720.70;;;13.70;68.75
50310;BME280;36207;51.850;21.698;2022-07-10T02:26:50;99722.52;;;13.72;68.89
50310;BME280;36207;51.850;21.698;2022-07-10T02:29:16;99718.59;;;13.75;69.13
50310;BME280;36207;51.850;21.698;2022-07-10T02:31:43;99713.30;;;13.73;69.00
50310;BME280;36207;51.850;21.698;2022-07-10T02:34:10;99713.89;;;13.71;68.97
50310;BME280;36207;51.850;21.698;2022-07-10T02:36:36;99711.37;;;13.71;69.04
50310;BME280;36207;51.850;21.698;2022-07-10T02:39:04;99707.94;;;13.72;68.97
50310;BME280;36207;51.850;21.698;2022-07-10T02:41:30;99710.13;;;13.74;69.32
50310;BME280;36207;51.850;21.698;2022-07-10T02:43:56;99710.58;;;13.79;69.30
50310;BME280;36207;51.850;21.698;2022-07-10T02:46:22;99706.98;;;13.83;69.29
50310;BME280;36207;51.850;21.698;2022-07-10T02:48:48;99698.52;;;13.84;69.34
50310;BME280;36207;51.850;21.698;2022-07-10T02:51:14;99694.30;;;13.89;69.44
50310;BME280;36207;51.850;21.698;2022-07-10T02:53:40;99691.77;;;13.95;69.62
50310;BME280;36207;51.850;21.698;2022-07-10T02:56:06;99694.61;;;14.02;69.73
50310;BME280;36207;51.850;21.698;2022-07-10T02:58:33;99695.88;;;14.08;69.74
50310;BME280;36207;51.850;21.698;2022-07-10T03:00:59;99694.44;;;14.08;69.70
50310;BME280;36207;51.850;21.698;2022-07-10T03:03:25;99692.70;;;14.07;69.95
50310;BME280;36207;51.850;21.698;2022-07-10T03:05:52;99696.25;;;14.09;69.81
50310;BME280;36207;51.850;21.698;2022-07-10T03:08:18;99697.20;;;14.09;69.62
50310;BME280;36207;51.850;21.698;2022-07-10T03:10:44;99700.00;;;14.12;69.97
50310;BME280;36207;51.850;21.698;2022-07-10T03:13:10;99699.61;;;14.18;70.21
50310;BME280;36207;51.850;21.698;2022-07-10T03:15:36;99699.81;;;14.24;70.28
50310;BME280;36207;51.850;21.698;2022-07-10T03:18:02;99700.67;;;14.25;69.92
50310;BME280;36207;51.850;21.698;2022-07-10T03:20:28;99701.79;;;14.26;70.27
50310;BME280;36207;51.850;21.698;2022-07-10T03:22:54;99698.84;;;14.29;70.21
50310;BME280;36207;51.850;21.698;2022-07-10T03:25:20;99702.30;;;14.34;70.14
50310;BME280;36207;51.850;21.698;2022-07-10T03:27:46;99706.21;;;14.40;70.22
50310;BME280;36207;51.850;21.698;2022-07-10T03:30:12;99712.84;;;14.47;70.61
50310;BME280;36207;51.850;21.698;2022-07-10T03:32:38;99711.34;;;14.49;70.41
50310;BME280;36207;51.850;21.698;2022-07-10T03:35:04;99710.29;;;14.46;70.17
50310;BME280;36207;51.850;21.698;2022-07-10T03:37:30;99705.98;;;14.46;70.32
50310;BME280;36207;51.850;21.698;2022-07-10T03:39:56;99706.39;;;14.47;70.36
50310;BME280;36207;51.850;21.698;2022-07-10T03:42:22;99704.86;;;14.50;70.55
50310;BME280;36207;51.850;21.698;2022-07-10T03:44:48;99703.92;;;14.54;70.37
50310;BME280;36207;51.850;21.698;2022-07-10T03:47:14;99701.52;;;14.56;70.44
50310;BME280;36207;51.850;21.698;2022-07-10T03:49:40;99698.79;;;14.57;70.61
50310;BME280;36207;51.850;21.698;2022-07-10T03:52:07;99697.73;;;14.58;70.70
50310;BME280;36207;51.850;21.698;2022-07-10T03:54:33;99694.95;;;14.63;70.84
50310;BME280;36207;51.850;21.698;2022-07-10T03:56:59;99690.67;;;14.69;70.90
50310;BME280;36207;51.850;21.698;2022-07-10T03:59:44;99691.30;;;14.73;70.66
50310;BME280;36207;51.850;21.698;2022-07-10T04:02:10;99685.95;;;14.77;70.76
50310;BME280;36207;51.850;21.698;2022-07-10T04:04:36;99688.17;;;14.81;70.81
50310;BME280;36207;51.850;21.698;2022-07-10T04:07:02;99689.36;;;14.84;70.88
50310;BME280;36207;51.850;21.698;2022-07-10T04:09:31;99687.02;;;14.88;70.94
50310;BME280;36207;51.850;21.698;2022-07-10T04:11:57;99687.24;;;14.92;71.02
50310;BME280;36207;51.850;21.698;2022-07-10T04:14:23;99684.88;;;15.01;71.06
50310;BME280;36207;51.850;21.698;2022-07-10T04:16:49;99682.83;;;15.04;70.86
50310;BME280;36207;51.850;21.698;2022-07-10T04:19:15;99684.16;;;15.03;70.91
50310;BME280;36207;51.850;21.698;2022-07-10T04:21:41;99682.83;;;15.03;70.94
50310;BME280;36207;51.850;21.698;2022-07-10T04:24:07;99680.95;;;15.02;70.74
50310;BME280;36207;51.850;21.698;2022-07-10T04:26:33;99679.40;;;15.04;70.68
50310;BME280;36207;51.850;21.698;2022-07-10T04:28:59;99674.39;;;15.05;70.69
50310;BME280;36207;51.850;21.698;2022-07-10T04:31:25;99676.00;;;15.04;70.66
50310;BME280;36207;51.850;21.698;2022-07-10T04:33:51;99678.75;;;15.02;70.44
50310;BME280;36207;51.850;21.698;2022-07-10T04:36:17;99680.33;;;15.02;70.67
50310;BME280;36207;51.850;21.698;2022-07-10T04:38:43;99677.49;;;14.98;70.51
50310;BME280;36207;51.850;21.698;2022-07-10T04:41:09;99676.40;;;14.93;70.50
50310;BME280;36207;51.850;21.698;2022-07-10T04:43:35;99681.44;;;14.94;70.64
50310;BME280;36207;51.850;21.698;2022-07-10T04:46:01;99677.45;;;14.98;70.79
50310;BME280;36207;51.850;21.698;2022-07-10T04:48:27;99676.88;;;15.04;70.95
50310;BME280;36207;51.850;21.698;2022-07-10T04:50:53;99675.27;;;15.07;71.04
50310;BME280;36207;51.850;21.698;2022-07-10T04:53:19;99670.34;;;15.14;70.81
50310;BME280;36207;51.850;21.698;2022-07-10T04:55:45;99666.56;;;15.18;70.82
50310;BME280;36207;51.850;21.698;2022-07-10T04:58:11;99666.21;;;15.21;70.59
50310;BME280;36207;51.850;21.698;2022-07-10T05:00:38;99666.02;;;15.26;70.63
50310;BME280;36207;51.850;21.698;2022-07-10T05:03:04;99671.95;;;15.29;70.65
50310;BME280;36207;51.850;21.698;2022-07-10T05:05:29;99667.72;;;15.35;70.88
50310;BME280;36207;51.850;21.698;2022-07-10T05:07:55;99666.60;;;15.46;70.84
50310;BME280;36207;51.850;21.698;2022-07-10T05:10:21;99668.67;;;15.56;71.04
50310;BME280;36207;51.850;21.698;2022-07-10T05:12:48;99668.41;;;15.67;70.99
50310;BME280;36207;51.850;21.698;2022-07-10T05:15:14;99670.04;;;15.73;70.82
50310;BME280;36207;51.850;21.698;2022-07-10T05:17:40;99664.95;;;15.78;70.65
50310;BME280;36207;51.850;21.698;2022-07-10T05:20:06;99665.98;;;15.87;70.99
50310;BME280;36207;51.850;21.698;2022-07-10T05:22:32;99657.00;;;15.98;70.73
50310;BME280;36207;51.850;21.698;2022-07-10T05:24:58;99656.06;;;16.12;70.78
50310;BME280;36207;51.850;21.698;2022-07-10T05:27:24;99659.33;;;16.23;70.62
50310;BME280;36207;51.850;21.698;2022-07-10T05:29:51;99657.10;;;16.30;70.52
50310;BME280;36207;51.850;21.698;2022-07-10T05:32:17;99660.03;;;16.35;70.33
50310;BME280;36207;51.850;21.698;2022-07-10T05:34:43;99659.58;;;16.38;70.40
50310;BME280;36207;51.850;21.698;2022-07-10T05:37:09;99655.89;;;16.44;70.67
50310;BME280;36207;51.850;21.698;2022-07-10T05:39:34;99656.52;;;16.54;70.53
50310;BME280;36207;51.850;21.698;2022-07-10T05:42:00;99657.36;;;16.63;70.43
50310;BME280;36207;51.850;21.698;2022-07-10T05:44:26;99660.94;;;16.71;70.46
50310;BME280;36207;51.850;21.698;2022-07-10T05:46:52;99659.58;;;16.82;70.44
50310;BME280;36207;51.850;21.698;2022-07-10T05:49:18;99663.95;;;16.89;70.16
50310;BME280;36207;51.850;21.698;2022-07-10T05:51:44;99661.33;;;16.94;70.15
50310;BME280;36207;51.850;21.698;2022-07-10T05:54:10;99661.88;;;16.99;69.91
50310;BME280;36207;51.850;21.698;2022-07-10T05:56:37;99662.88;;;17.04;69.93
50310;BME280;36207;51.850;21.698;2022-07-10T05:59:03;99660.36;;;17.09;69.69
50310;BME280;36207;51.850;21.698;2022-07-10T06:01:29;99655.77;;;17.13;69.51
50310;BME280;36207;51.850;21.698;2022-07-10T06:03:55;99657.96;;;17.14;69.19
50310;BME280;36207;51.850;21.698;2022-07-10T06:06:21;99657.63;;;17.16;69.20
50310;BME280;36207;51.850;21.698;2022-07-10T06:08:47;99664.59;;;17.18;69.12
50310;BME280;36207;51.850;21.698;2022-07-10T06:11:13;99665.64;;;17.22;69.08
50310;BME280;36207;51.850;21.698;2022-07-10T06:13:39;99662.03;;;17.24;69.01
50310;BME280;36207;51.850;21.698;2022-07-10T06:16:05;99665.62;;;17.23;68.96
50310;BME280;36207;51.850;21.698;2022-07-10T06:18:31;99662.73;;;17.24;68.84
50310;BME280;36207;51.850;21.698;2022-07-10T06:20:57;99660.67;;;17.24;68.82
50310;BME280;36207;51.850;21.698;2022-07-10T06:23:23;99660.55;;;17.23;68.78
50310;BME280;36207;51.850;21.698;2022-07-10T06:25:49;99664.82;;;17.24;68.70
50310;BME280;36207;51.850;21.698;2022-07-10T06:28:16;99666.85;;;17.27;68.84
50310;BME280;36207;51.850;21.698;2022-07-10T06:30:42;99668.58;;;17.33;68.75
50310;BME280;36207;51.850;21.698;2022-07-10T06:33:09;99667.58;;;17.41;68.67
50310;BME280;36207;51.850;21.698;2022-07-10T06:35:35;99667.37;;;17.50;68.52
50310;BME280;36207;51.850;21.698;2022-07-10T06:38:01;99665.24;;;17.58;68.66
50310;BME280;36207;51.850;21.698;2022-07-10T06:40:28;99664.48;;;17.60;68.23
50310;BME280;36207;51.850;21.698;2022-07-10T06:42:54;99664.70;;;17.62;67.78
50310;BME280;36207;51.850;21.698;2022-07-10T06:45:20;99664.77;;;17.63;67.91
50310;BME280;36207;51.850;21.698;2022-07-10T06:47:46;99662.65;;;17.65;67.84
50310;BME280;36207;51.850;21.698;2022-07-10T06:50:22;99660.88;;;17.68;67.89
50310;BME280;36207;51.850;21.698;2022-07-10T06:52:48;99659.20;;;17.69;67.71
50310;BME280;36207;51.850;21.698;2022-07-10T06:55:15;99659.21;;;17.70;67.37
50310;BME280;36207;51.850;21.698;2022-07-10T06:57:41;99660.20;;;17.73;67.34
50310;BME280;36207;51.850;21.698;2022-07-10T07:00:08;99660.33;;;17.77;67.03
50310;BME280;36207;51.850;21.698;2022-07-10T07:02:35;99663.73;;;17.78;66.92
50310;BME280;36207;51.850;21.698;2022-07-10T07:05:01;99663.14;;;17.80;66.45
50310;BME280;36207;51.850;21.698;2022-07-10T07:07:27;99665.16;;;17.78;65.99
50310;BME280;36207;51.850;21.698;2022-07-10T07:09:53;99661.66;;;17.78;65.84
50310;BME280;36207;51.850;21.698;2022-07-10T07:12:19;99662.08;;;17.75;65.39
50310;BME280;36207;51.850;21.698;2022-07-10T07:14:45;99669.21;;;17.70;65.45
50310;BME280;36207;51.850;21.698;2022-07-10T07:17:12;99669.95;;;17.67;65.82
50310;BME280;36207;51.850;21.698;2022-07-10T07:19:40;99670.77;;;17.66;65.78
50310;BME280;36207;51.850;21.698;2022-07-10T07:22:25;99670.69;;;17.62;65.65
50310;BME280;36207;51.850;21.698;2022-07-10T07:25:10;99668.78;;;17.55;65.71
50310;BME280;36207;51.850;21.698;2022-07-10T07:27:37;99666.38;;;17.49;65.17
50310;BME280;36207;51.850;21.698;2022-07-10T07:32:56;99663.19;;;17.35;64.69
50310;BME280;36207;51.850;21.698;2022-07-10T07:35:22;99668.30;;;17.30;64.18
50310;BME280;36207;51.850;21.698;2022-07-10T07:37:49;99669.67;;;17.25;63.93
50310;BME280;36207;51.850;21.698;2022-07-10T07:40:17;99673.80;;;17.18;63.06
50310;BME280;36207;51.850;21.698;2022-07-10T07:42:45;99675.08;;;17.10;63.34
50310;BME280;36207;51.850;21.698;2022-07-10T07:45:12;99676.11;;;17.05;63.22
50310;BME280;36207;51.850;21.698;2022-07-10T07:47:45;99679.70;;;17.00;63.40
50310;BME280;36207;51.850;21.698;2022-07-10T07:50:12;99681.38;;;16.96;63.20
50310;BME280;36207;51.850;21.698;2022-07-10T07:52:38;99682.45;;;16.91;63.19
50310;BME280;36207;51.850;21.698;2022-07-10T07:55:05;99681.17;;;16.86;63.01
50310;BME280;36207;51.850;21.698;2022-07-10T07:57:31;99681.18;;;16.80;63.28
50310;BME280;36207;51.850;21.698;2022-07-10T07:59:57;99683.33;;;16.77;63.32
50310;BME280;36207;51.850;21.698;2022-07-10T08:02:23;99682.48;;;16.72;63.45
50310;BME280;36207;51.850;21.698;2022-07-10T08:04:48;99681.38;;;16.69;63.48
50310;BME280;36207;51.850;21.698;2022-07-10T08:07:14;99687.71;;;16.66;63.73
50310;BME280;36207;51.850;21.698;2022-07-10T08:09:40;99688.92;;;16.63;63.61
50310;BME280;36207;51.850;21.698;2022-07-10T08:12:06;99690.10;;;16.57;63.75
50310;BME280;36207;51.850;21.698;2022-07-10T08:14:32;99692.70;;;16.52;63.90
50310;BME280;36207;51.850;21.698;2022-07-10T08:16:59;99690.14;;;16.47;63.86
50310;BME280;36207;51.850;21.698;2022-07-10T08:19:25;99689.55;;;16.42;63.91
50310;BME280;36207;51.850;21.698;2022-07-10T08:21:51;99686.90;;;16.38;63.90
50310;BME280;36207;51.850;21.698;2022-07-10T08:24:18;99686.34;;;16.35;64.06
50310;BME280;36207;51.850;21.698;2022-07-10T08:26:49;99687.40;;;16.33;64.25
50310;BME280;36207;51.850;21.698;2022-07-10T08:29:21;99685.09;;;16.29;64.02
50310;BME280;36207;51.850;21.698;2022-07-10T08:31:47;99683.73;;;16.24;64.09
50310;BME280;36207;51.850;21.698;2022-07-10T08:34:13;99683.89;;;16.21;64.29
50310;BME280;36207;51.850;21.698;2022-07-10T08:36:39;99685.30;;;16.21;64.28
50310;BME280;36207;51.850;21.698;2022-07-10T08:39:05;99687.06;;;16.23;64.61
50310;BME280;36207;51.850;21.698;2022-07-10T08:41:31;99693.43;;;16.25;64.54
50310;BME280;36207;51.850;21.698;2022-07-10T08:43:58;99697.73;;;16.26;64.66
50310;BME280;36207;51.850;21.698;2022-07-10T08:46:25;99699.96;;;16.27;64.56
50310;BME280;36207;51.850;21.698;2022-07-10T08:48:51;99697.99;;;16.28;64.77
50310;BME280;36207;51.850;21.698;2022-07-10T08:52:02;99702.52;;;16.31;64.96
50310;BME280;36207;51.850;21.698;2022-07-10T08:54:10;99701.43;;;16.37;65.06
50310;BME280;36207;51.850;21.698;2022-07-10T08:56:39;99696.45;;;16.41;65.04
50310;BME280;36207;51.850;21.698;2022-07-10T08:59:05;99693.84;;;16.47;64.98
50310;BME280;36207;51.850;21.698;2022-07-10T09:01:33;99691.95;;;16.52;65.16
50310;BME280;36207;51.850;21.698;2022-07-10T09:03:59;99693.17;;;16.57;65.27
50310;BME280;36207;51.850;21.698;2022-07-10T09:06:27;99686.80;;;16.60;65.39
50310;BME280;36207;51.850;21.698;2022-07-10T09:09:04;99683.16;;;16.63;65.38
50310;BME280;36207;51.850;21.698;2022-07-10T09:11:30;99682.48;;;16.66;65.38
50310;BME280;36207;51.850;21.698;2022-07-10T09:14:00;99680.06;;;16.68;65.52
50310;BME280;36207;51.850;21.698;2022-07-10T09:16:27;99675.88;;;16.71;65.30
50310;BME280;36207;51.850;21.698;2022-07-10T09:18:54;99677.52;;;16.74;65.32
50310;BME280;36207;51.850;21.698;2022-07-10T09:21:20;99677.34;;;16.78;65.18
50310;BME280;36207;51.850;21.698;2022-07-10T09:23:47;99675.06;;;16.82;65.10
50310;BME280;36207;51.850;21.698;2022-07-10T09:26:13;99674.83;;;16.87;65.08
50310;BME280;36207;51.850;21.698;2022-07-10T09:28:40;99670.08;;;16.88;64.92
50310;BME280;36207;51.850;21.698;2022-07-10T09:31:05;99667.73;;;16.92;64.90
50310;BME280;36207;51.850;21.698;2022-07-10T09:33:32;99665.91;;;17.01;65.03
50310;BME280;36207;51.850;21.698;2022-07-10T09:43:56;99657.48;;;17.40;64.58
50310;BME280;36207;51.850;21.698;2022-07-10T09:46:26;99650.77;;;17.51;64.59
50310;BME280;36207;51.850;21.698;2022-07-10T09:49:06;99651.41;;;17.62;64.55
50310;BME280;36207;51.850;21.698;2022-07-10T09:51:36;99648.16;;;17.75;64.46
50310;BME280;36207;51.850;21.698;2022-07-10T09:54:03;99647.70;;;17.90;64.58
50310;BME280;36207;51.850;21.698;2022-07-10T09:56:36;99643.80;;;18.09;64.88
50310;BME280;36207;51.850;21.698;2022-07-10T09:59:07;99641.52;;;18.29;64.14
50310;BME280;36207;51.850;21.698;2022-07-10T10:01:34;99639.02;;;18.43;64.03
50310;BME280;36207;51.850;21.698;2022-07-10T10:04:01;99634.88;;;18.56;63.72
50310;BME280;36207;51.850;21.698;2022-07-10T10:06:29;99630.31;;;18.64;62.25
50310;BME280;36207;51.850;21.698;2022-07-10T10:11:41;99626.11;;;18.65;62.89
50310;BME280;36207;51.850;21.698;2022-07-10T10:14:09;99620.80;;;18.70;62.83
50310;BME280;36207;51.850;21.698;2022-07-10T10:16:35;99622.67;;;18.76;62.81
50310;BME280;36207;51.850;21.698;2022-07-10T10:19:03;99618.46;;;18.85;62.20
50310;BME280;36207;51.850;21.698;2022-07-10T10:21:48;99620.27;;;18.93;62.14
50310;BME280;36207;51.850;21.698;2022-07-10T10:24:14;99618.58;;;18.95;61.50
50310;BME280;36207;51.850;21.698;2022-07-10T10:26:41;99617.30;;;18.99;62.00
50310;BME280;36207;51.850;21.698;2022-07-10T10:29:07;99613.28;;;19.14;62.08
50310;BME280;36207;51.850;21.698;2022-07-10T10:31:34;99613.05;;;19.27;61.64
50310;BME280;36207;51.850;21.698;2022-07-10T10:34:00;99619.73;;;19.35;61.29
50310;BME280;36207;51.850;21.698;2022-07-10T10:39:02;99645.70;;;19.23;60.61
50310;BME280;36207;51.850;21.698;2022-07-10T10:41:30;99643.73;;;19.01;60.28
50310;BME280;36207;51.850;21.698;2022-07-10T10:46:35;99644.12;;;18.40;59.74
50310;BME280;36207;51.850;21.698;2022-07-10T10:49:05;99649.19;;;18.19;59.90
50310;BME280;36207;51.850;21.698;2022-07-10T10:54:19;99656.57;;;17.83;60.19
50310;BME280;36207;51.850;21.698;2022-07-10T10:56:45;99662.02;;;17.73;60.12
50310;BME280;36207;51.850;21.698;2022-07-10T10:59:30;99665.73;;;17.60;60.31
50310;BME280;36207;51.850;21.698;2022-07-10T11:04:43;99652.08;;;17.32;60.39
50310;BME280;36207;51.850;21.698;2022-07-10T11:07:09;99643.31;;;17.24;61.01
50310;BME280;36207;51.850;21.698;2022-07-10T11:09:35;99637.33;;;17.24;61.20
50310;BME280;36207;51.850;21.698;2022-07-10T11:12:03;99640.95;;;17.29;61.34
50310;BME280;36207;51.850;21.698;2022-07-10T11:14:31;99639.63;;;17.37;61.05
50310;BME280;36207;51.850;21.698;2022-07-10T11:16:58;99633.60;;;17.44;61.01
50310;BME280;36207;51.850;21.698;2022-07-10T11:19:25;99631.84;;;17.52;60.89
50310;BME280;36207;51.850;21.698;2022-07-10T11:29:45;99626.96;;;17.88;61.82
50310;BME280;36207;51.850;21.698;2022-07-10T11:32:16;99624.23;;;18.11;61.56
50310;BME280;36207;51.850;21.698;2022-07-10T11:34:42;99625.23;;;18.26;61.60
50310;BME280;36207;51.850;21.698;2022-07-10T11:37:15;99626.55;;;18.37;61.54
50310;BME280;36207;51.850;21.698;2022-07-10T11:39:42;99625.73;;;18.45;61.14
50310;BME280;36207;51.850;21.698;2022-07-10T11:42:08;99625.91;;;18.51;61.05
50310;BME280;36207;51.850;21.698;2022-07-10T11:44:34;99628.06;;;18.54;60.48
50310;BME280;36207;51.850;21.698;2022-07-10T11:47:00;99626.58;;;18.53;60.74
50310;BME280;36207;51.850;21.698;2022-07-10T11:49:28;99623.51;;;18.53;60.67
50310;BME280;36207;51.850;21.698;2022-07-10T11:51:55;99625.37;;;18.51;60.62
50310;BME280;36207;51.850;21.698;2022-07-10T11:54:26;99625.08;;;18.50;60.52
50310;BME280;36207;51.850;21.698;2022-07-10T11:56:53;99624.39;;;18.49;60.62
50310;BME280;36207;51.850;21.698;2022-07-10T11:59:23;99625.04;;;18.46;60.82
50310;BME280;36207;51.850;21.698;2022-07-10T12:01:51;99626.12;;;18.46;61.12
50310;BME280;36207;51.850;21.698;2022-07-10T12:04:21;99624.34;;;18.51;61.28
50310;BME280;36207;51.850;21.698;2022-07-10T12:06:49;99624.58;;;18.67;61.95
50310;BME280;36207;51.850;21.698;2022-07-10T12:09:17;99628.95;;;18.92;62.06
50310;BME280;36207;51.850;21.698;2022-07-10T12:11:44;99635.44;;;19.19;62.51
50310;BME280;36207;51.850;21.698;2022-07-10T12:14:15;99636.45;;;19.43;62.13
50310;BME280;36207;51.850;21.698;2022-07-10T12:16:48;99638.27;;;19.54;61.64
50310;BME280;36207;51.850;21.698;2022-07-10T12:19:15;99641.98;;;19.59;61.70
50310;BME280;36207;51.850;21.698;2022-07-10T12:21:42;99646.03;;;19.55;61.66
50310;BME280;36207;51.850;21.698;2022-07-10T12:24:09;99643.94;;;19.38;61.54
50310;BME280;36207;51.850;21.698;2022-07-10T12:26:35;99641.60;;;19.25;61.49
50310;BME280;36207;51.850;21.698;2022-07-10T12:29:02;99642.66;;;19.11;61.53
50310;BME280;36207;51.850;21.698;2022-07-10T12:31:29;99642.35;;;18.96;61.35
50310;BME280;36207;51.850;21.698;2022-07-10T12:33:58;99634.25;;;18.77;61.33
50310;BME280;36207;51.850;21.698;2022-07-10T12:36:48;99637.59;;;18.58;61.49
50310;BME280;36207;51.850;21.698;2022-07-10T12:39:14;99637.64;;;18.46;61.79
50310;BME280;36207;51.850;21.698;2022-07-10T12:41:56;99643.59;;;18.41;61.70
50310;BME280;36207;51.850;21.698;2022-07-10T12:44:38;99643.27;;;18.38;62.06
50310;BME280;36207;51.850;21.698;2022-07-10T12:47:08;99644.77;;;18.38;61.77
50310;BME280;36207;51.850;21.698;2022-07-10T12:55:05;99645.14;;;18.39;61.23
50310;BME280;36207;51.850;21.698;2022-07-10T12:57:32;99639.15;;;18.35;60.41
50310;BME280;36207;51.850;21.698;2022-07-10T13:00:05;99637.63;;;18.32;60.38
50310;BME280;36207;51.850;21.698;2022-07-10T13:02:32;99638.77;;;18.33;60.69
50310;BME280;36207;51.850;21.698;2022-07-10T13:04:58;99636.10;;;18.37;61.00
50310;BME280;36207;51.850;21.698;2022-07-10T13:09:58;99629.41;;;18.43;60.66
50310;BME280;36207;51.850;21.698;2022-07-10T13:12:24;99626.45;;;18.44;60.67
50310;BME280;36207;51.850;21.698;2022-07-10T13:14:50;99622.14;;;18.53;60.81
50310;BME280;36207;51.850;21.698;2022-07-10T13:17:16;99620.45;;;18.68;60.96
50310;BME280;36207;51.850;21.698;2022-07-10T13:19:42;99618.38;;;18.84;60.87
50310;BME280;36207;51.850;21.698;2022-07-10T13:22:08;99618.18;;;18.94;60.85
50310;BME280;36207;51.850;21.698;2022-07-10T13:24:34;99618.43;;;19.06;60.56
50310;BME280;36207;51.850;21.698;2022-07-10T13:27:00;99616.55;;;19.12;59.80
50310;BME280;36207;51.850;21.698;2022-07-10T13:29:26;99612.70;;;19.18;60.08